Estación Meteorológica Peña el Pijo (Robertgarden) [ 01/30/23 14:34:42 CET ]

Fecha Hora Presion(HPa) Temp (°C) Humedad % Rocio (°C) Viento ( m/s) Direccion Lluvia 1Hora(mm) Lluvia 24H(mm) LLuvia Total(mm)
2010-Feb-01 01:01:19 1003.400 1.1 75 -2.9         69.41
2010-Feb-01 02:07:07 1003.400 -0.9 80 -3.9         69.41
2010-Feb-01 03:01:14 1003.700 -1.9 84 -4.3         69.41
2010-Feb-01 04:01:12 1003.600 -2.4 86 -4.4         69.41
2010-Feb-01 05:08:07 1004.200 - - - - SE     69.41
2010-Feb-01 06:01:12 1005.000 -0.4 86 -2.4         69.41
2010-Feb-01 07:01:13 1005.800 -0.4 87 -2.3         69.41
2010-Feb-01 08:01:18 1006.700 -0.7 87 -2.6         69.41
2010-Feb-01 09:01:14 1007.600 0.3 87 -1.6         69.41
2010-Feb-01 10:01:16 1008.500 3.0 84 0.5         69.41
2010-Feb-01 11:01:13 1009.100 6.4 66 0.5         69.41
2010-Feb-01 12:01:14 1009.600 7.8 56 -0.5         69.41
2010-Feb-01 13:01:14 1009.400 10.9 46 -0.3         69.41
2010-Feb-01 14:01:12 1009.300 11.6 44 -0.3         69.41
2010-Feb-01 15:01:14 1009.100 11.5 43 -0.7         69.41
2010-Feb-01 16:01:12 1009.100 11.6 41 -1.2         69.41
2010-Feb-01 17:01:12 1009.500 9.0 46 -2.1         69.41
2010-Feb-01 18:01:12 1010.400 7.2 52 -2.0         69.41
2010-Feb-01 19:01:12 1011.100 4.8 58 -2.8         69.41
2010-Feb-01 20:01:12 1011.900 1.6 70 -3.3         69.41
2010-Feb-01 21:01:16 1012.400 -0.4 76 -4.1         69.41
2010-Feb-01 22:01:15 1012.900 -1.4 80 -4.4         69.41
2010-Feb-01 23:01:14 1013.300 -2.0 83 -4.5         69.41

Temperatura Máxima:11°    Temperatura Mínima:-2°
Presión Máxima:1013.300 Hpa    Presión Mínima:1003.400 Hpa


Volver